Kerdonis — FGH2416 — position and weather

sailwx.info

Track history (hours):
 
Tides and Currents Weather Stations Pressure Air Temp Water Temp Dewpoint Dewpoint Depression Visibility Wind Speed Wind Dir Waves Ship Positions

Kerdonis

Last reported at 2018-Feb-02 13:12 UTC. Time now 2018-Feb-21 05:47 UTC.
Position N 47°44' W 003°21'.
Warning: this ship's position is 18 days out of date.

Length 30 m; draft 1.8 m.

Type: Passenger vessel. MMSI: 227075870.

Date/timePositionNaut miles runAvg speedWind from/ knotsBaromVisibWave heightAir tempDewpointWater temp
2018-Feb-02 13:12N 47°44' W 003°21'0 0.6
2018-Feb-02 13:00N 47°44' W 003°21'0 0.0
2018-Feb-01 16:29N 47°44' W 003°21'0 0.0
2018-Feb-01 16:00N 47°44' W 003°21'0 0.0
2018-Feb-01 15:30N 47°44' W 003°21'0 0.0
2018-Feb-01 15:00N 47°44' W 003°21'0 0.0
2018-Feb-01 13:30N 47°44' W 003°21'0 0.0
2018-Feb-01 13:00N 47°44' W 003°21'0 0.0
2018-Feb-01 10:57N 47°44' W 003°21'0 0.0
2018-Feb-01 10:30N 47°44' W 003°21'0 0.0
2018-Feb-01 10:00N 47°44' W 003°21'0 0.0
2018-Feb-01 09:30N 47°44' W 003°21'0 0.0
2018-Feb-01 09:00N 47°44' W 003°21'0 0.0
2018-Feb-01 08:30N 47°44' W 003°21'0 0.0
2018-Jan-31 16:22N 47°44' W 003°21'0 0.0
2018-Jan-31 16:00N 47°44' W 003°21'0 0.0
2018-Jan-31 15:30N 47°44' W 003°21'0 0.0
2018-Jan-31 15:00N 47°44' W 003°21'0 0.0
2018-Jan-31 14:30N 47°44' W 003°21'0 0.0
2018-Jan-31 13:00N 47°44' W 003°21'0 0.0
2018-Jan-31 10:40N 47°44' W 003°21'0 0.0
2018-Jan-31 10:30N 47°44' W 003°21'0 0.0
2018-Jan-31 10:00N 47°44' W 003°21'0 0.0
2018-Jan-31 09:30N 47°44' W 003°21'0 0.0
2018-Jan-31 09:00N 47°44' W 003°21'0 0.0
2018-Jan-31 08:30N 47°44' W 003°21'0 0.0
2018-Jan-31 08:00N 47°44' W 003°21'0 0.0
2018-Jan-29 11:46N 47°44' W 003°21'1 4.5
2018-Jan-29 11:30N 47°43' W 003°22'2 3.7
2018-Jan-29 11:00N 47°42' W 003°22'2 4.6
2018-Jan-29 10:30N 47°44' W 003°22'  
2018-Jan-24 13:05N 47°44' W 003°22'0 0.0
2018-Jan-24 13:00N 47°44' W 003°22'  
Track history (hours):
 
Tides and Currents Weather Stations Pressure Air Temp Water Temp Dewpoint Dewpoint Depression Visibility Wind Speed Wind Dir Waves Ship Positions

Kerdonis

Last reported at 2018-Feb-02 13:12 UTC. Time now 2018-Feb-21 05:47 UTC.
Position N 47°44' W 003°21'.
Warning: this ship's position is 18 days out of date.

Length 30 m; draft 1.8 m.

Type: Passenger vessel. MMSI: 227075870.

Date/timePositionNaut miles runAvg speedWind from/ knotsBaromVisibWave heightAir tempDewpointWater temp
2018-Feb-02 13:12N 47°44' W 003°21'0 0.6
2018-Feb-02 13:00N 47°44' W 003°21'0 0.0
2018-Feb-01 16:29N 47°44' W 003°21'0 0.0
2018-Feb-01 16:00N 47°44' W 003°21'0 0.0
2018-Feb-01 15:30N 47°44' W 003°21'0 0.0
2018-Feb-01 15:00N 47°44' W 003°21'0 0.0
2018-Feb-01 13:30N 47°44' W 003°21'0 0.0
2018-Feb-01 13:00N 47°44' W 003°21'0 0.0
2018-Feb-01 10:57N 47°44' W 003°21'0 0.0
2018-Feb-01 10:30N 47°44' W 003°21'0 0.0
2018-Feb-01 10:00N 47°44' W 003°21'0 0.0
2018-Feb-01 09:30N 47°44' W 003°21'0 0.0
2018-Feb-01 09:00N 47°44' W 003°21'0 0.0
2018-Feb-01 08:30N 47°44' W 003°21'0 0.0
2018-Jan-31 16:22N 47°44' W 003°21'0 0.0
2018-Jan-31 16:00N 47°44' W 003°21'0 0.0
2018-Jan-31 15:30N 47°44' W 003°21'0 0.0
2018-Jan-31 15:00N 47°44' W 003°21'0 0.0
2018-Jan-31 14:30N 47°44' W 003°21'0 0.0
2018-Jan-31 13:00N 47°44' W 003°21'0 0.0
2018-Jan-31 10:40N 47°44' W 003°21'0 0.0
2018-Jan-31 10:30N 47°44' W 003°21'0 0.0
2018-Jan-31 10:00N 47°44' W 003°21'0 0.0
2018-Jan-31 09:30N 47°44' W 003°21'0 0.0
2018-Jan-31 09:00N 47°44' W 003°21'0 0.0
2018-Jan-31 08:30N 47°44' W 003°21'0 0.0
2018-Jan-31 08:00N 47°44' W 003°21'0 0.0
2018-Jan-29 11:46N 47°44' W 003°21'1 4.5
2018-Jan-29 11:30N 47°43' W 003°22'2 3.7
2018-Jan-29 11:00N 47°42' W 003°22'2 4.6
2018-Jan-29 10:30N 47°44' W 003°22'  
2018-Jan-24 13:05N 47°44' W 003°22'0 0.0
2018-Jan-24 13:00N 47°44' W 003°22'  

Dump ship's entire track history